Time;durP1;ratioP1;P1;durP2;ratioP2;P2;SDS_P1;SDS_P2;PMS_P1;PMS_P2;Temp;Humidity;BMP_temperature;BMP_pressure;BME280_temperature;BME280_humidity;BME280_pressure;Samples;Min_cycle;Max_cycle;Signal;HPM_P1;HPM_P2
2021/07/17 00:00:56;;;;;;;3.40;2.30;;;22.20;64.40;;;;;;5073270;28;20029;-73
2021/07/17 00:03:22;;;;;;;5.97;2.40;;;22.20;64.40;;;;;;5073295;28;20020;-73
2021/07/17 00:05:47;;;;;;;5.32;2.28;;;22.20;64.70;;;;;;5053375;28;20114;-72
2021/07/17 00:08:13;;;;;;;3.72;2.28;;;22.10;64.70;;;;;;5062328;28;20025;-73
2021/07/17 00:10:44;;;;;;;2.85;2.33;;;22.10;64.80;;;;;;5071868;28;20024;-72
2021/07/17 00:13:09;;;;;;;5.47;2.38;;;22.10;64.80;;;;;;5052179;28;20476;-73
2021/07/17 00:15:36;;;;;;;3.55;2.60;;;22.10;64.90;;;;;;5052156;28;20055;-72
2021/07/17 00:18:03;;;;;;;6.30;2.42;;;22.10;65.10;;;;;;5052862;28;20111;-72
2021/07/17 00:20:30;;;;;;;4.80;2.65;;;22.10;65.10;;;;;;5052708;28;20486;-73
2021/07/17 00:22:55;;;;;;;4.00;2.28;;;22.10;65.10;;;;;;5058471;28;20036;-72
2021/07/17 00:25:22;;;;;;;5.70;2.83;;;22.10;65.20;;;;;;5065534;28;20017;-73
2021/07/17 00:27:48;;;;;;;5.90;2.28;;;22.10;65.20;;;;;;5064695;28;20024;-73
2021/07/17 00:30:16;;;;;;;6.05;2.88;;;22.10;65.20;;;;;;5063968;28;20891;-74
2021/07/17 00:32:43;;;;;;;4.47;2.53;;;22.10;65.20;;;;;;5052813;28;20029;-73
2021/07/17 00:35:09;;;;;;;3.08;2.40;;;22.10;65.20;;;;;;5058862;28;20499;-73
2021/07/17 00:37:35;;;;;;;5.10;2.40;;;22.10;65.20;;;;;;5055962;28;20028;-72
2021/07/17 00:40:01;;;;;;;3.78;2.28;;;22.10;65.20;;;;;;5058063;28;20107;-73
2021/07/17 00:42:28;;;;;;;2.53;2.30;;;22.10;65.20;;;;;;5065085;28;20027;-73
2021/07/17 00:44:54;;;;;;;4.10;2.28;;;22.10;65.20;;;;;;5068644;28;20471;-72
2021/07/17 00:47:21;;;;;;;4.78;2.30;;;22.10;65.20;;;;;;5080619;28;20056;-73
2021/07/17 00:49:47;;;;;;;31.25;3.08;;;22.10;65.10;;;;;;5086125;28;20173;-74
2021/07/17 00:52:13;;;;;;;7.32;2.67;;;22.10;65.00;;;;;;5067963;28;20542;-72
2021/07/17 00:54:41;;;;;;;4.93;2.22;;;22.10;65.00;;;;;;5075395;28;20046;-72
2021/07/17 00:57:09;;;;;;;5.82;2.08;;;22.10;64.90;;;;;;5061066;28;20032;-72
2021/07/17 00:59:36;;;;;;;4.82;2.35;;;22.20;64.90;;;;;;5068538;28;20024;-72
2021/07/17 01:02:03;;;;;;;2.22;2.03;;;22.20;64.80;;;;;;5071537;28;20508;-73
2021/07/17 01:04:30;;;;;;;3.47;2.10;;;22.20;64.80;;;;;;5070547;28;20020;-73
2021/07/17 01:06:59;;;;;;;6.53;2.33;;;22.20;64.80;;;;;;5082642;28;20016;-73
2021/07/17 01:09:26;;;;;;;5.20;2.33;;;22.20;64.80;;;;;;5078286;28;20059;-73
2021/07/17 01:11:54;;;;;;;9.55;2.60;;;22.20;64.80;;;;;;5073271;28;20024;-73
2021/07/17 01:14:20;;;;;;;4.57;2.10;;;22.20;64.80;;;;;;5070618;28;20027;-73
2021/07/17 01:16:47;;;;;;;5.30;2.63;;;22.20;64.80;;;;;;5084554;28;20021;-73
2021/07/17 01:19:13;;;;;;;6.10;2.75;;;22.20;64.70;;;;;;5070941;28;20394;-73
2021/07/17 01:21:39;;;;;;;3.65;2.50;;;22.20;64.60;;;;;;5083262;28;20070;-73
2021/07/17 01:24:05;;;;;;;6.60;2.50;;;22.20;64.60;;;;;;5064886;28;20021;-73
2021/07/17 01:26:31;;;;;;;4.03;2.30;;;22.20;64.60;;;;;;5085113;28;20103;-73
2021/07/17 01:28:57;;;;;;;5.38;2.72;;;22.20;64.50;;;;;;5062671;28;20108;-73
2021/07/17 01:31:23;;;;;;;7.68;2.70;;;22.20;64.40;;;;;;5075014;28;20024;-73
2021/07/17 01:33:49;;;;;;;4.18;2.22;;;22.20;64.40;;;;;;5067152;28;20033;-73
2021/07/17 01:36:14;;;;;;;3.65;2.10;;;22.20;64.30;;;;;;5083716;28;20153;-72
2021/07/17 01:38:42;;;;;;;2.85;1.88;;;22.20;64.30;;;;;;5075114;28;20382;-72
2021/07/17 01:41:09;;;;;;;2.55;2.10;;;22.20;64.20;;;;;;5081132;28;20103;-72
2021/07/17 01:43:36;;;;;;;4.47;2.97;;;22.20;64.20;;;;;;5065791;28;20017;-73
2021/07/17 01:46:02;;;;;;;6.60;2.17;;;22.30;64.10;;;;;;5084943;28;20028;-73
2021/07/17 01:48:28;;;;;;;3.33;2.60;;;22.30;64.00;;;;;;5073220;28;20020;-73
2021/07/17 01:50:54;;;;;;;2.92;2.30;;;22.30;64.10;;;;;;5082849;28;20531;-72
2021/07/17 01:53:21;;;;;;;8.63;2.97;;;22.30;64.10;;;;;;5064690;28;20119;-72
2021/07/17 01:55:47;;;;;;;8.05;2.90;;;22.30;64.20;;;;;;5086232;28;20481;-73
2021/07/17 01:58:13;;;;;;;5.00;2.70;;;22.30;64.20;;;;;;5063076;28;20040;-72
2021/07/17 02:00:39;;;;;;;3.83;2.60;;;22.30;64.40;;;;;;5081209;28;20413;-73
2021/07/17 02:03:06;;;;;;;3.28;2.47;;;22.20;64.30;;;;;;5063123;28;20091;-73
2021/07/17 02:05:32;;;;;;;4.35;2.67;;;22.20;64.20;;;;;;5081721;28;20099;-73
2021/07/17 02:07:59;;;;;;;3.90;2.63;;;22.30;64.30;;;;;;5072171;28;20028;-73
2021/07/17 02:10:28;;;;;;;7.25;2.70;;;22.30;64.30;;;;;;5089472;28;20039;-73
2021/07/17 02:12:59;;;;;;;2.67;2.00;;;22.30;64.20;;;;;;5073618;28;20363;-72
2021/07/17 02:15:27;;;;;;;5.18;2.15;;;22.30;64.20;;;;;;5066557;28;20471;-73
2021/07/17 02:17:53;;;;;;;8.13;2.08;;;22.40;64.00;;;;;;5081714;28;20024;-73
2021/07/17 02:20:20;;;;;;;2.72;2.17;;;22.40;64.00;;;;;;5071786;28;20023;-73
2021/07/17 02:22:45;;;;;;;4.72;2.20;;;22.40;64.00;;;;;;5082248;28;20012;-73
2021/07/17 02:25:11;;;;;;;3.40;2.60;;;22.40;64.00;;;;;;5069426;28;20043;-73
2021/07/17 02:27:37;;;;;;;5.65;2.50;;;22.50;65.20;;;;;;5083300;28;20047;-73
2021/07/17 02:30:07;;;;;;;2.50;2.03;;;22.50;65.10;;;;;;5066979;28;20056;-73
2021/07/17 02:32:32;;;;;;;2.95;2.10;;;22.50;65.20;;;;;;5059232;28;20042;-73
2021/07/17 02:34:58;;;;;;;6.38;2.67;;;22.40;65.40;;;;;;5064500;28;20024;-72
2021/07/17 02:37:24;;;;;;;4.65;2.58;;;22.40;65.90;;;;;;5082981;28;20485;-72
2021/07/17 02:39:51;;;;;;;8.95;2.85;;;22.30;66.80;;;;;;5076936;28;20024;-72
2021/07/17 02:42:17;;;;;;;6.43;2.95;;;22.30;67.30;;;;;;5090674;28;20031;-72
2021/07/17 02:44:43;;;;;;;5.72;3.00;;;22.20;67.60;;;;;;5073388;28;20016;-72
2021/07/17 02:47:09;;;;;;;6.00;3.35;;;22.00;67.80;;;;;;5077368;28;20509;-72
2021/07/17 02:49:35;;;;;;;9.73;3.67;;;22.00;68.50;;;;;;5081976;28;20458;-73
2021/07/17 02:52:00;;;;;;;4.82;3.20;;;21.80;69.10;;;;;;5078049;28;20090;-74
2021/07/17 02:54:26;;;;;;;13.38;3.85;;;21.80;69.80;;;;;;5067896;28;20024;-76
2021/07/17 02:56:52;;;;;;;7.95;3.55;;;21.70;70.40;;;;;;5079515;28;20485;-75
2021/07/17 02:59:18;;;;;;;4.80;3.30;;;21.60;70.60;;;;;;5092943;28;20032;-74
2021/07/17 03:01:43;;;;;;;7.18;3.53;;;21.50;70.70;;;;;;5080189;28;20036;-74
2021/07/17 03:04:09;;;;;;;10.45;4.55;;;21.50;70.90;;;;;;5073185;28;20422;-75
2021/07/17 03:06:35;;;;;;;4.30;3.40;;;21.40;71.10;;;;;;5087431;28;20017;-74
2021/07/17 03:09:04;;;;;;;7.45;3.58;;;21.40;71.50;;;;;;5072831;28;20107;-75
2021/07/17 03:11:33;;;;;;;6.07;3.80;;;21.40;72.00;;;;;;5069943;28;20025;-74
2021/07/17 03:14:00;;;;;;;6.13;3.97;;;21.40;72.00;;;;;;5071346;28;20039;-76
2021/07/17 03:16:26;;;;;;;9.50;4.00;;;21.30;72.10;;;;;;5082914;28;20024;-75
2021/07/17 03:18:53;;;;;;;9.35;4.63;;;21.30;72.40;;;;;;5086973;28;20048;-75
2021/07/17 03:21:19;;;;;;;6.18;3.60;;;21.30;72.40;;;;;;5082593;28;20477;-73
2021/07/17 03:23:44;;;;;;;9.30;4.28;;;21.20;72.70;;;;;;5071522;28;20401;-75
2021/07/17 03:26:10;;;;;;;6.18;3.78;;;21.20;72.80;;;;;;5074591;28;20025;-74
2021/07/17 03:28:36;;;;;;;7.78;4.13;;;21.20;72.90;;;;;;5087908;28;20021;-76
2021/07/17 03:31:02;;;;;;;7.22;4.10;;;21.10;73.10;;;;;;5077680;28;20533;-74
2021/07/17 03:33:29;;;;;;;7.72;3.70;;;21.20;74.10;;;;;;5076584;28;20025;-73
2021/07/17 03:35:57;;;;;;;8.60;4.38;;;21.10;73.40;;;;;;5072025;28;20462;-74
2021/07/17 03:38:24;;;;;;;7.28;4.15;;;21.10;73.40;;;;;;5061933;28;20426;-74
2021/07/17 03:40:50;;;;;;;5.90;4.72;;;21.10;73.30;;;;;;5085407;28;20019;-73
2021/07/17 03:43:16;;;;;;;5.68;4.07;;;21.10;73.30;;;;;;5072136;28;20030;-74
2021/07/17 03:45:42;;;;;;;15.00;5.22;;;21.10;73.00;;;;;;5089029;28;20024;-73
2021/07/17 03:48:08;;;;;;;9.10;4.55;;;21.10;73.20;;;;;;5069552;28;20025;-73
2021/07/17 03:50:33;;;;;;;7.00;4.47;;;21.10;73.20;;;;;;5088881;28;20050;-75
2021/07/17 03:52:59;;;;;;;9.48;4.60;;;21.10;73.20;;;;;;5080332;28;20024;-74
2021/07/17 03:55:25;;;;;;;8.95;4.70;;;21.10;73.20;;;;;;5078727;28;20099;-76
2021/07/17 03:57:51;;;;;;;6.93;4.45;;;21.10;73.30;;;;;;5063250;28;20039;-75
2021/07/17 04:00:17;;;;;;;7.60;4.63;;;21.20;73.10;;;;;;5069596;28;20032;-73
2021/07/17 04:02:43;;;;;;;9.20;4.78;;;21.20;73.00;;;;;;5087722;28;20070;-75
2021/07/17 04:05:11;;;;;;;8.38;4.80;;;21.20;73.10;;;;;;5071162;28;20069;-74
2021/07/17 04:07:37;;;;;;;5.18;4.50;;;21.20;73.10;;;;;;5082092;28;20377;-76
2021/07/17 04:10:08;;;;;;;5.57;4.20;;;21.20;73.10;;;;;;5074790;28;20021;-75
2021/07/17 04:12:34;;;;;;;5.90;3.70;;;21.20;73.10;;;;;;5063312;28;20027;-74
2021/07/17 04:15:01;;;;;;;6.57;4.20;;;21.20;73.10;;;;;;5081230;28;20478;-74
2021/07/17 04:17:28;;;;;;;5.72;3.95;;;21.30;73.00;;;;;;5081551;28;20568;-74
2021/07/17 04:19:54;;;;;;;7.65;4.32;;;21.30;72.80;;;;;;5085340;28;20114;-75
2021/07/17 04:22:20;;;;;;;6.22;4.20;;;21.30;72.70;;;;;;5089125;28;20105;-74
2021/07/17 04:24:45;;;;;;;6.47;4.53;;;21.30;72.50;;;;;;5070329;28;20047;-74
2021/07/17 04:27:12;;;;;;;5.10;4.55;;;21.30;72.30;;;;;;5090354;28;20062;-73
2021/07/17 04:29:38;;;;;;;8.57;4.53;;;21.30;72.30;;;;;;5075112;28;20021;-73
2021/07/17 04:32:04;;;;;;;9.77;5.07;;;21.30;72.20;;;;;;5098033;28;20031;-73
2021/07/17 04:34:29;;;;;;;6.72;4.78;;;21.40;72.30;;;;;;5075731;28;20016;-74
2021/07/17 04:36:55;;;;;;;11.98;4.95;;;21.40;72.10;;;;;;5085285;28;20541;-75
2021/07/17 04:39:22;;;;;;;5.65;4.18;;;21.40;72.00;;;;;;5085178;28;20020;-72
2021/07/17 04:41:48;;;;;;;7.05;4.78;;;21.40;72.00;;;;;;5070195;28;20082;-75
2021/07/17 04:44:13;;;;;;;4.95;4.00;;;21.50;72.00;;;;;;5087699;28;20028;-74
2021/07/17 04:46:39;;;;;;;9.00;4.72;;;21.50;72.00;;;;;;5071944;28;20020;-73
2021/07/17 04:49:05;;;;;;;4.38;3.97;;;21.50;71.80;;;;;;5073321;28;20115;-74
2021/07/17 04:51:31;;;;;;;3.63;3.15;;;21.60;72.10;;;;;;5087795;28;20127;-75
2021/07/17 04:53:56;;;;;;;6.20;3.63;;;21.70;72.10;;;;;;5071484;28;20108;-78
2021/07/17 04:56:22;;;;;;;4.72;3.45;;;21.80;72.40;;;;;;5084519;28;20027;-76
2021/07/17 04:58:48;;;;;;;3.90;3.38;;;21.80;72.10;;;;;;5082857;28;20110;-75
2021/07/17 05:01:14;;;;;;;18.35;4.90;;;21.90;71.90;;;;;;5081977;28;20085;-73
2021/07/17 05:03:39;;;;;;;5.82;3.83;;;22.00;71.40;;;;;;5076702;28;20513;-76
2021/07/17 05:06:05;;;;;;;5.25;3.75;;;22.00;71.30;;;;;;5087240;28;20028;-73
2021/07/17 05:08:31;;;;;;;9.02;4.55;;;22.10;71.40;;;;;;5066870;28;20031;-76
2021/07/17 05:10:57;;;;;;;4.20;3.80;;;22.20;71.00;;;;;;5088418;28;20507;-77
2021/07/17 05:13:26;;;;;;;5.60;3.80;;;22.30;70.90;;;;;;5080600;28;20028;-74
2021/07/17 05:15:52;;;;;;;7.35;3.85;;;22.30;70.50;;;;;;5087460;28;20028;-73
2021/07/17 05:18:18;;;;;;;5.47;4.07;;;22.40;70.20;;;;;;5063318;28;20020;-74
2021/07/17 05:20:44;;;;;;;6.07;4.03;;;22.40;69.90;;;;;;5088295;28;20016;-76
2021/07/17 05:23:11;;;;;;;5.13;3.95;;;22.40;69.60;;;;;;5072036;28;20029;-74
2021/07/17 05:25:37;;;;;;;4.80;4.03;;;22.50;69.40;;;;;;5066971;28;20086;-76
2021/07/17 05:28:04;;;;;;;6.40;5.15;;;22.50;69.60;;;;;;5085124;28;20020;-74
2021/07/17 05:30:30;;;;;;;5.97;4.40;;;22.50;69.10;;;;;;5076977;28;20078;-74
2021/07/17 05:32:56;;;;;;;8.95;4.10;;;22.50;68.90;;;;;;5086653;28;20446;-75
2021/07/17 05:35:21;;;;;;;11.57;4.68;;;22.60;69.20;;;;;;5061885;28;20037;-77
2021/07/17 05:37:49;;;;;;;5.10;4.20;;;22.60;69.00;;;;;;5083400;28;20027;-76
2021/07/17 05:40:15;;;;;;;6.03;4.32;;;22.60;69.30;;;;;;5075773;28;20021;-78
2021/07/17 05:42:41;;;;;;;4.97;4.25;;;22.70;69.00;;;;;;5086119;28;20074;-74
2021/07/17 05:45:08;;;;;;;4.60;4.13;;;22.70;69.10;;;;;;5082190;28;20024;-73
2021/07/17 05:47:33;;;;;;;9.13;4.55;;;22.70;68.70;;;;;;5078724;28;20471;-73
2021/07/17 05:49:59;;;;;;;7.28;4.95;;;22.80;68.70;;;;;;5087384;28;20062;-74
2021/07/17 05:52:25;;;;;;;9.18;4.55;;;22.80;68.70;;;;;;5073519;28;20071;-75
2021/07/17 05:54:50;;;;;;;11.70;5.65;;;22.90;68.50;;;;;;5079724;28;20024;-75
2021/07/17 05:57:16;;;;;;;5.05;4.25;;;22.80;68.10;;;;;;5083001;28;20066;-73
2021/07/17 05:59:42;;;;;;;5.45;4.40;;;22.90;68.10;;;;;;5077216;28;20028;-74
2021/07/17 06:02:08;;;;;;;8.13;4.60;;;22.90;68.50;;;;;;5088272;28;20046;-74
2021/07/17 06:04:34;;;;;;;6.57;4.30;;;22.90;68.40;;;;;;5062586;28;20020;-73
2021/07/17 06:07:00;;;;;;;4.60;4.13;;;22.90;68.00;;;;;;5081851;28;20024;-74
2021/07/17 06:09:25;;;;;;;8.85;4.80;;;22.80;68.10;;;;;;5071830;28;20024;-73
2021/07/17 06:11:51;;;;;;;6.57;4.60;;;22.80;68.20;;;;;;5086702;28;20040;-75
2021/07/17 06:14:18;;;;;;;13.52;4.28;;;22.80;68.30;;;;;;5081986;28;20433;-77
2021/07/17 06:16:44;;;;;;;9.27;4.72;;;22.70;68.30;;;;;;5089433;28;20099;-75
2021/07/17 06:19:11;;;;;;;9.40;5.00;;;22.70;68.30;;;;;;5086106;28;20020;-75
2021/07/17 06:21:37;;;;;;;12.82;5.38;;;22.70;68.40;;;;;;5062447;28;20108;-73
2021/07/17 06:24:03;;;;;;;10.02;5.63;;;22.70;68.20;;;;;;5088711;28;20024;-74
2021/07/17 06:26:29;;;;;;;10.02;5.40;;;22.70;68.20;;;;;;5080441;28;20040;-73
2021/07/17 06:28:55;;;;;;;6.28;5.15;;;22.70;68.10;;;;;;5086227;28;20097;-76
2021/07/17 06:31:21;;;;;;;6.75;5.22;;;22.70;68.10;;;;;;5086118;28;20028;-76
2021/07/17 06:33:47;;;;;;;13.70;5.50;;;22.60;68.10;;;;;;5071872;28;20029;-75
2021/07/17 06:36:13;;;;;;;9.13;5.28;;;22.70;68.20;;;;;;5092234;28;20069;-76
2021/07/17 06:38:38;;;;;;;6.90;5.10;;;22.70;68.20;;;;;;5075084;28;20377;-75
2021/07/17 06:41:04;;;;;;;12.60;5.38;;;22.70;68.30;;;;;;5086104;28;20490;-75
2021/07/17 06:43:30;;;;;;;7.40;5.40;;;22.70;68.50;;;;;;5088588;28;20062;-77
2021/07/17 06:45:56;;;;;;;8.55;4.85;;;22.70;68.60;;;;;;5079123;28;20036;-74
2021/07/17 06:48:22;;;;;;;6.40;5.10;;;22.70;68.70;;;;;;5086465;28;20478;-72
2021/07/17 06:50:48;;;;;;;9.25;5.15;;;22.80;68.70;;;;;;5067167;28;20040;-74
2021/07/17 06:53:15;;;;;;;8.52;5.80;;;22.80;68.60;;;;;;5074374;28;20025;-74
2021/07/17 06:55:41;;;;;;;6.45;5.43;;;22.90;68.50;;;;;;5084626;28;20069;-74
2021/07/17 06:58:07;;;;;;;6.95;5.47;;;22.90;68.50;;;;;;5077515;28;20021;-74
2021/07/17 07:00:34;;;;;;;8.13;5.72;;;22.90;68.60;;;;;;5060332;28;20059;-75
2021/07/17 07:03:01;;;;;;;8.07;5.25;;;23.00;68.60;;;;;;5072711;28;20142;-73
2021/07/17 07:05:26;;;;;;;6.82;5.03;;;23.00;68.50;;;;;;5083134;28;20040;-73
2021/07/17 07:07:52;;;;;;;10.57;5.05;;;23.10;68.40;;;;;;5080368;28;20142;-76
2021/07/17 07:10:18;;;;;;;9.38;5.57;;;23.20;68.50;;;;;;5095225;28;20025;-78
2021/07/17 07:12:45;;;;;;;6.88;4.55;;;23.30;68.20;;;;;;5090162;28;20469;-74
2021/07/17 07:15:11;;;;;;;5.70;4.93;;;23.40;67.80;;;;;;5093885;28;20059;-75
2021/07/17 07:17:39;;;;;;;10.93;5.43;;;23.40;67.30;;;;;;5079031;28;20060;-74
2021/07/17 07:20:07;;;;;;;6.90;5.05;;;23.40;67.20;;;;;;5081232;28;20035;-76
2021/07/17 07:22:33;;;;;;;11.63;6.45;;;23.40;66.90;;;;;;5063535;28;20354;-75
2021/07/17 07:24:59;;;;;;;11.52;5.57;;;23.40;66.60;;;;;;5085791;28;20032;-74
2021/07/17 07:27:25;;;;;;;10.20;5.57;;;23.50;66.60;;;;;;5065477;28;20025;-72
2021/07/17 07:29:51;;;;;;;17.17;5.82;;;23.40;66.40;;;;;;5085065;28;20028;-76
2021/07/17 07:32:16;;;;;;;9.32;6.43;;;23.40;66.60;;;;;;5063529;28;20024;-75
2021/07/17 07:34:42;;;;;;;6.35;4.97;;;23.50;66.70;;;;;;5085294;28;20035;-75
2021/07/17 07:37:08;;;;;;;5.95;4.97;;;23.50;66.90;;;;;;5082082;28;20411;-77
2021/07/17 07:39:35;;;;;;;6.65;5.57;;;23.50;66.70;;;;;;5087905;28;20099;-74
2021/07/17 07:42:01;;;;;;;14.73;5.68;;;23.60;66.70;;;;;;5077592;28;20062;-73
2021/07/17 07:44:28;;;;;;;9.00;5.30;;;23.60;66.70;;;;;;5093360;28;20074;-75
2021/07/17 07:46:54;;;;;;;10.93;6.32;;;23.60;66.60;;;;;;5085164;28;20378;-74
2021/07/17 07:49:20;;;;;;;10.98;5.95;;;23.60;66.30;;;;;;5085871;28;20032;-77
2021/07/17 07:51:46;;;;;;;11.30;5.53;;;23.60;66.90;;;;;;5078711;28;20492;-76
2021/07/17 07:54:12;;;;;;;9.15;6.53;;;23.70;66.80;;;;;;5057904;28;20079;-74
2021/07/17 07:56:38;;;;;;;9.50;5.75;;;23.70;66.70;;;;;;5064072;28;20028;-76
2021/07/17 07:59:04;;;;;;;8.02;5.95;;;23.80;66.20;;;;;;5087044;28;20166;-76
2021/07/17 08:01:29;;;;;;;6.82;5.50;;;23.80;66.60;;;;;;5079965;28;20119;-76
2021/07/17 08:03:55;;;;;;;8.80;4.88;;;24.00;66.90;;;;;;5074113;28;20024;-74
2021/07/17 08:06:21;;;;;;;11.32;5.15;;;24.10;66.60;;;;;;5089283;28;20489;-75
2021/07/17 08:08:46;;;;;;;9.70;5.43;;;24.20;66.40;;;;;;5079649;28;20020;-75
2021/07/17 08:11:12;;;;;;;8.60;5.70;;;24.30;66.30;;;;;;5081870;28;20035;-74
2021/07/17 08:13:38;;;;;;;8.40;5.50;;;24.40;65.40;;;;;;5087974;28;20030;-76
2021/07/17 08:16:04;;;;;;;7.90;5.60;;;24.50;65.30;;;;;;5077040;28;20095;-76
2021/07/17 08:18:30;;;;;;;10.38;5.30;;;24.60;64.40;;;;;;5089006;28;20024;-77
2021/07/17 08:20:57;;;;;;;8.27;5.60;;;24.70;64.30;;;;;;5066460;28;20100;-76
2021/07/17 08:23:23;;;;;;;8.25;6.25;;;24.70;64.90;;;;;;5059026;28;20461;-76
2021/07/17 08:25:52;;;;;;;7.00;5.53;;;24.80;64.20;;;;;;5084424;28;20454;-75
2021/07/17 08:28:18;;;;;;;10.23;5.97;;;24.80;63.80;;;;;;5075853;28;20058;-75
2021/07/17 08:30:44;;;;;;;7.90;5.30;;;24.80;63.60;;;;;;5086136;28;20017;-76
2021/07/17 08:33:10;;;;;;;7.25;5.43;;;24.80;63.80;;;;;;5081471;28;20065;-74
2021/07/17 08:35:36;;;;;;;8.20;5.18;;;24.90;64.30;;;;;;5059497;28;20028;-76
2021/07/17 08:38:02;;;;;;;6.47;4.82;;;25.00;65.10;;;;;;5065897;28;20020;-75
2021/07/17 08:40:29;;;;;;;6.63;4.97;;;25.10;65.40;;;;;;5069259;28;20025;-74
2021/07/17 08:42:55;;;;;;;7.03;4.97;;;25.20;65.20;;;;;;5065911;28;20029;-77
2021/07/17 08:45:22;;;;;;;6.65;5.32;;;25.30;64.50;;;;;;5071878;28;20367;-74
2021/07/17 08:47:50;;;;;;;7.72;5.60;;;25.50;64.40;;;;;;5075130;28;20020;-77
2021/07/17 08:50:21;;;;;;;9.10;5.03;;;25.50;64.20;;;;;;5072287;28;20105;-76
2021/07/17 08:52:52;;;;;;;6.32;4.95;;;25.70;64.80;;;;;;5079467;28;20026;-73
2021/07/17 08:55:19;;;;;;;8.73;5.47;;;25.80;64.60;;;;;;5076499;28;20044;-73
2021/07/17 08:57:44;;;;;;;10.35;5.80;;;26.00;64.10;;;;;;5070298;28;20036;-74
2021/07/17 09:00:22;;;;;;;7.13;5.53;;;26.10;63.40;;;;;;5073801;28;20089;-76
2021/07/17 09:02:51;;;;;;;11.63;5.53;;;26.10;62.50;;;;;;5072015;28;20021;-76
2021/07/17 09:05:21;;;;;;;7.00;5.53;;;26.20;62.30;;;;;;5068770;28;20436;-75
2021/07/17 09:07:47;;;;;;;8.77;5.90;;;26.20;62.10;;;;;;5071873;28;20035;-75
2021/07/17 09:10:35;;;;;;;12.30;6.90;;;26.20;61.50;;;;;;5073014;28;20604;-76
2021/07/17 09:13:22;;;;;;;7.25;6.03;;;26.20;60.90;;;;;;5081184;28;20036;-75
2021/07/17 09:15:48;;;;;;;9.43;6.13;;;26.20;61.40;;;;;;5060345;28;20033;-81
2021/07/17 09:18:35;;;;;;;7.68;6.25;;;26.20;61.10;;;;;;5069476;28;20052;-78
2021/07/17 09:21:06;;;;;;;10.90;6.63;;;26.30;61.00;;;;;;5073895;28;20059;-74
2021/07/17 09:23:35;;;;;;;8.07;6.00;;;26.30;61.30;;;;;;5075725;28;20059;-78
2021/07/17 09:26:09;;;;;;;20.35;11.45;;;26.40;61.40;;;;;;5085798;28;20052;-75
2021/07/17 09:28:35;;;;;;;12.02;7.88;;;26.60;61.10;;;;;;5059219;28;20435;-77
2021/07/17 09:31:01;;;;;;;6.07;5.20;;;26.70;61.00;;;;;;5059806;28;20033;-78
2021/07/17 09:33:28;;;;;;;13.45;9.30;;;26.80;61.30;;;;;;5067202;28;20028;-76
2021/07/17 09:35:56;;;;;;;19.10;12.80;;;26.90;61.00;;;;;;5054670;28;20060;-75
2021/07/17 09:38:24;;;;;;;29.35;17.63;;;27.00;59.60;;;;;;5065505;28;20032;-74
2021/07/17 09:40:59;;;;;;;23.90;15.88;;;27.10;59.10;;;;;;5063521;28;20031;-75
2021/07/17 09:43:38;;;;;;;14.65;10.00;;;27.20;58.90;;;;;;5054267;28;20024;-73
2021/07/17 09:46:23;;;;;;;10.13;8.18;;;27.20;58.40;;;;;;5085482;28;20027;-73
2021/07/17 09:48:54;;;;;;;13.32;7.85;;;27.30;58.50;;;;;;5075525;28;20031;-72
2021/07/17 09:51:25;;;;;;;13.50;7.20;;;27.30;58.30;;;;;;5064862;28;20045;-72
2021/07/17 09:53:53;;;;;;;13.13;8.48;;;27.30;58.10;;;;;;5068849;28;20024;-71
2021/07/17 09:56:28;;;;;;;12.65;7.22;;;27.40;57.90;;;;;;5084383;28;20108;-71
2021/07/17 09:58:54;;;;;;;18.10;8.57;;;27.40;58.30;;;;;;5057975;28;20040;-72
2021/07/17 10:01:26;;;;;;;15.45;8.00;;;27.50;57.80;;;;;;5061865;28;20140;-72
2021/07/17 10:03:57;;;;;;;10.05;7.47;;;27.50;57.50;;;;;;5056861;28;20017;-72
2021/07/17 10:06:33;;;;;;;14.10;7.07;;;27.50;57.90;;;;;;5058780;28;20587;-73
2021/07/17 10:09:06;;;;;;;9.40;7.55;;;27.60;57.70;;;;;;5059525;28;20025;-73
2021/07/17 10:11:32;;;;;;;17.63;8.77;;;27.60;58.00;;;;;;5061390;28;20103;-70
2021/07/17 10:14:13;;;;;;;18.98;7.90;;;27.60;57.00;;;;;;5054653;28;20155;-72
2021/07/17 10:16:40;;;;;;;9.25;7.53;;;27.60;56.90;;;;;;5055137;28;20029;-72
2021/07/17 10:19:06;;;;;;;10.70;7.40;;;27.50;56.90;;;;;;5060653;28;20032;-72
2021/07/17 10:21:34;;;;;;;10.63;7.70;;;27.60;57.10;;;;;;5067921;28;20035;-72
2021/07/17 10:24:00;;;;;;;12.32;7.38;;;27.60;57.10;;;;;;5066497;28;20028;-72
2021/07/17 10:26:26;;;;;;;11.98;7.75;;;27.60;57.40;;;;;;5070964;28;20437;-73
2021/07/17 10:28:59;;;;;;;11.75;7.65;;;27.70;57.10;;;;;;5072103;28;20028;-75
2021/07/17 10:31:25;;;;;;;15.43;7.60;;;27.80;56.70;;;;;;5061453;28;20028;-73
2021/07/17 10:33:51;;;;;;;16.23;7.13;;;27.90;56.90;;;;;;5056884;28;20016;-72
2021/07/17 10:36:20;;;;;;;13.68;8.18;;;28.20;56.60;;;;;;5061730;28;20501;-72
2021/07/17 10:38:49;;;;;;;12.63;7.88;;;28.30;55.90;;;;;;5057516;28;20444;-72
2021/07/17 10:41:17;;;;;;;15.45;6.72;;;28.50;55.20;;;;;;5057603;28;20020;-72
2021/07/17 10:43:53;;;;;;;12.35;6.78;;;28.60;56.00;;;;;;5057597;28;20021;-72
2021/07/17 10:46:34;;;;;;;11.60;6.93;;;28.90;54.90;;;;;;5064440;28;20486;-72
2021/07/17 10:49:03;;;;;;;9.98;7.38;;;29.10;54.40;;;;;;5060244;28;20446;-73
2021/07/17 10:51:34;;;;;;;13.20;8.13;;;29.20;53.50;;;;;;5057377;28;20041;-72
2021/07/17 10:54:05;;;;;;;8.85;7.20;;;29.40;52.60;;;;;;5057606;28;20117;-71
2021/07/17 10:56:39;;;;;;;13.73;7.50;;;29.60;52.90;;;;;;5053822;28;20049;-72
2021/07/17 10:59:28;;;;;;;9.40;6.80;;;29.80;53.10;;;;;;5053975;28;20029;-72
2021/07/17 11:01:57;;;;;;;10.45;7.30;;;30.00;53.20;;;;;;5070893;28;20124;-73
2021/07/17 11:04:33;;;;;;;10.13;6.85;;;30.30;50.90;;;;;;5073309;28;20482;-73
2021/07/17 11:07:19;;;;;;;9.63;6.40;;;30.50;51.00;;;;;;5075290;28;20486;-72
2021/07/17 11:09:56;;;;;;;13.15;7.15;;;30.70;51.40;;;;;;5075231;28;20492;-72
2021/07/17 11:12:30;;;;;;;11.35;7.13;;;30.90;49.40;;;;;;5075224;28;20025;-73
2021/07/17 11:15:19;;;;;;;11.48;6.72;;;31.00;48.80;;;;;;5071973;28;20025;-73
2021/07/17 11:17:53;;;;;;;12.50;6.82;;;31.20;49.10;;;;;;5060415;28;20532;-73
2021/07/17 11:20:30;;;;;;;12.32;7.15;;;31.30;47.70;;;;;;5060566;28;20028;-73
2021/07/17 11:23:05;;;;;;;9.40;7.18;;;31.30;47.40;;;;;;5060438;28;20060;-72
2021/07/17 11:25:32;;;;;;;11.60;6.93;;;31.30;47.60;;;;;;5059968;28;20407;-73
2021/07/17 11:27:58;;;;;;;15.48;7.15;;;31.30;47.90;;;;;;5059963;28;20112;-73
2021/07/17 11:30:25;;;;;;;18.15;7.80;;;31.30;47.70;;;;;;5058947;28;20472;-72
2021/07/17 11:33:06;;;;;;;9.70;7.03;;;31.40;47.60;;;;;;5066594;28;20600;-72
2021/07/17 11:35:37;;;;;;;13.50;7.57;;;31.40;47.80;;;;;;5059239;28;20028;-72
2021/07/17 11:38:05;;;;;;;10.93;7.75;;;31.40;47.40;;;;;;5060283;28;20029;-73
2021/07/17 11:40:32;;;;;;;14.73;7.22;;;31.40;47.50;;;;;;5063757;28;20021;-71
2021/07/17 11:43:03;;;;;;;9.98;7.30;;;31.40;47.90;;;;;;5066012;28;20439;-71
2021/07/17 11:45:28;;;;;;;12.30;7.13;;;31.50;48.00;;;;;;5065938;28;20097;-72
2021/07/17 11:47:54;;;;;;;16.85;7.57;;;31.60;48.00;;;;;;5066932;28;20025;-72
2021/07/17 11:50:23;;;;;;;13.18;7.13;;;31.60;47.50;;;;;;5065379;28;20076;-72
2021/07/17 11:52:50;;;;;;;9.90;7.30;;;31.70;47.10;;;;;;5066768;28;20037;-72
2021/07/17 11:55:16;;;;;;;10.07;7.63;;;31.70;46.30;;;;;;5061051;28;20517;-72
2021/07/17 11:57:44;;;;;;;11.18;6.70;;;31.70;45.60;;;;;;5059937;28;20481;-73
2021/07/17 12:00:19;;;;;;;9.57;7.60;;;31.70;45.70;;;;;;5059536;28;20028;-72
2021/07/17 12:02:53;;;;;;;12.80;6.70;;;31.80;46.00;;;;;;5058884;28;20422;-71
2021/07/17 12:05:20;;;;;;;12.30;7.50;;;31.80;46.10;;;;;;5059124;28;20016;-72
2021/07/17 12:07:47;;;;;;;13.93;6.82;;;31.90;45.90;;;;;;5059853;28;20103;-72
2021/07/17 12:10:18;;;;;;;9.48;7.07;;;31.90;45.80;;;;;;5061309;28;20467;-72
2021/07/17 12:12:51;;;;;;;10.48;6.70;;;32.00;45.60;;;;;;5057899;28;20079;-72
2021/07/17 12:15:33;;;;;;;15.25;6.85;;;32.00;45.10;;;;;;5060887;28;20442;-71
2021/07/17 12:18:04;;;;;;;9.38;6.60;;;32.00;44.60;;;;;;5066261;28;20032;-71
2021/07/17 12:20:34;;;;;;;10.02;6.50;;;32.00;44.80;;;;;;5066190;28;20028;-71
2021/07/17 12:23:07;;;;;;;11.98;8.02;;;32.00;44.80;;;;;;5066030;28;20024;-72
2021/07/17 12:25:40;;;;;;;8.02;6.32;;;32.00;44.60;;;;;;5053012;28;20029;-72
2021/07/17 12:28:20;;;;;;;7.60;6.57;;;32.00;45.00;;;;;;5064462;28;20082;-72
2021/07/17 12:30:52;;;;;;;8.80;6.95;;;31.90;45.10;;;;;;5073856;28;20128;-72
2021/07/17 12:33:30;;;;;;;7.65;6.82;;;32.00;44.90;;;;;;5074224;28;20031;-72
2021/07/17 12:36:06;;;;;;;8.52;6.05;;;32.00;44.80;;;;;;5072098;28;20036;-71
2021/07/17 12:38:35;;;;;;;10.38;6.00;;;32.00;44.80;;;;;;5073927;28;20020;-71
2021/07/17 12:41:06;;;;;;;8.50;6.50;;;32.10;45.10;;;;;;5073489;28;20544;-71
2021/07/17 12:43:32;;;;;;;8.65;5.72;;;32.20;44.60;;;;;;5073500;28;20024;-71
2021/07/17 12:46:07;;;;;;;6.95;6.07;;;32.30;44.70;;;;;;5073400;28;20012;-71